Red Devil, AK (99656)

11:37 PM AKDT on August 22, 2014 (GMT -0800)
Sleetmute | Change Station
CLOSE
Current Station
Airport
Location: Sleetmute,
Elevation: 177 ft
Nearby Weather Stations

Elev 177 ft 61.72 °N, 157.15 °W | Updated 21 minutes ago

Overcast
Overcast
55 °F
Feels Like 55 °F
N
0
Wind Variable Wind from North

Today
High -- | Low -- °F
--% Chance of Precip.
Yesterday
High -- | Low -- °F
Precip. -- in
6:53 AM 10:08 PM
Waning Crescent, 5% visible
Pressure 30.22 in
Visibility 10.0 miles
Clouds Overcast 9000 ft
Dew Point 43 °F
Humidity 63%
Rainfall 0.00 in
Snow Depth Not available.
UV 0 out of 12
Pollen Not available.
Air Quality Not available.
Flu Activity Not available.
METAR PASL 230716Z AUTO 00000KT 10SM OVC090 13/06 A3022 RMK AO1

More Conditions Fewer Conditions

Pressure 30.22 in
Visibility 10.0 miles
Clouds Overcast 9000 ft
Dew Point 43 °F
Humidity 63%
Rainfall 0.00 in
Snow Depth Not available.
UV 0 out of 12
Pollen Not available.
Air Quality Not available.
Flu Activity Not available.
METAR PASL 230716Z AUTO 00000KT 10SM OVC090 13/06 A3022 RMK AO1

More Conditions Fewer Conditions

10-Day Weather Forecast

Almanac

Astronomy

Aug. 22, 2014 Rise Set
Actual Time 6:53 AM AKDT 10:08 PM AKDT
Civil Twilight 6:01 AM AKDT 10:59 PM AKDT
Nautical Twilight 4:45 AM AKDT 12:13 AM AKDT
Astronomical Twilight 3:04 AM AKDT 1:59 AM AKDT
Moon 4:04 AM AKDT (8/22) 8:36 PM AKDT (8/22)
Length of Visible Light 16h 58m
Length of Day
15h 14m
Tomorrow will be 5m 47s shorter.
Waning Crescent, 5% of the Moon is Illuminated
Aug 23
Waning Crescent
Aug 25
New
Sep 2
First Quarter
Sep 8
Full
Sep 15
Last Quarter

Community

WunderPhotos

Upload Photos

1,746,377 photos uploaded!

WunderBlogs® & News

By Dr. Jeff Masters
Director of Meteorology, Weather Underground
By Kari Strenfel
Meteorologist, Weather Underground
By Christopher C. Burt
Weather Historian, Weather Underground
August 23, 2014
August 23, 2014
August 22, 2014

Nearby

Snow Depth

Station Depth Elevation
Mcneil Canyon 1 in 1320 ft
Susitna Valley High 2 in 375 ft
Point Mackenzie 1 in 200 ft
Port Graham 0 in 300 ft
MF Bradley River 3 in 2300 ft

Earthquake Activity

City Distance Mag. Time & Date
No recent earthquake activity has been reported nearby.
Minimum magnitude displayed is 2.5.

Coastal Water Temperatures

Place Temperature
No Stations Reporting

Nearby Weather Stations